Alfredo Vásquez Cobo International Airport
SKLT : rendu visible

Aérodrome :











RETROUVEZ-NOUS SUR...

 
LOGIN :

S'inscrire | Disclaimer

   EN    FR    IT 

 









Légende :    VFR   VFR Marginal   IFR   IFR Intensif   IFR Très Intensif
Visi : 
Plafond : 
>= 8 km
>= 3000ft
5 à 8 km
1000 à 3000 ft
1500m à 5 km
500 à 1000 ft
800 à 1500m
200 à 500 ft
< 800m
< 200 ft
Symboles :   Orages  Brouillard  Fortes neiges  Fortes précipitations  Vent > 20 kt






- Altitude de l'aérodrome : 277 ft
- Code IATA : LET


SKLT - Alfredo Vásquez Cobo International

DERNIER METAR :
  • 211900Z 22005KT 9999 SCT015 BKN100 30/26 A2980

METARs EXPIRÉS :
  • 211800Z 34003KT 9999 SCT015 BKN100 30/26 A2984
  • 211700Z 28004KT 9999 SCT015 BKN100 29/26 A2989

TAF TAF SKLT
Valide du 21 à 18h jusqu'au 22 à 18h UTC


211630Z 2118/2218 VRB02KT 9999 SCT015 BKN080
TEMPO 2119/2122 5000 RADZ SCT014CB BKN080
TEMPO 2208/2212 3000 BR BKN005 TX31/2118Z TN23/2211Z



MET'MAP, la Météo Aéronautique d'un coup d'oeil ! - Copyright ORBIFLY Décembre 2007 - Disclaimer

ORBIFLY MET'MAP TEAM :

Programmation & Développement : Alexandra Zaïnal
Sur une idée originale de : Baudouin d'Aumeries
Assistance à la programmation : Marc-Olivier Méhu
Soutien technique & logistique : Manuel Goepfert

Contact : metmap@orbifly.com




SOURCES & CREDITS :

   NOAA       Earth
Advisory